Time;durP1;ratioP1;P1;durP2;ratioP2;P2;SDS_P1;SDS_P2;PMS_P1;PMS_P2;Temp;Humidity;BMP_temperature;BMP_pressure;BME280_temperature;BME280_humidity;BME280_pressure;Samples;Min_cycle;Max_cycle;Signal;HPM_P1;HPM_P2
2024/03/05 00:01:58;;;;;;;7.60;6.80;;;21.10;55.00;;;;;;5052732;28;20449;-69
2024/03/05 00:04:25;;;;;;;7.50;6.80;;;21.10;55.00;;;;;;5043876;28;20448;-70
2024/03/05 00:06:50;;;;;;;9.97;8.97;;;21.10;55.00;;;;;;5052340;28;20179;-69
2024/03/05 00:09:16;;;;;;;8.70;7.10;;;21.10;55.00;;;;;;5052295;28;20463;-70
2024/03/05 00:11:42;;;;;;;7.77;7.00;;;21.10;54.90;;;;;;5051736;28;20236;-71
2024/03/05 00:14:08;;;;;;;7.70;6.97;;;21.10;55.00;;;;;;5051344;28;20560;-70
2024/03/05 00:16:34;;;;;;;7.40;6.70;;;21.20;55.10;;;;;;5052314;28;20199;-70
2024/03/05 00:19:00;;;;;;;7.40;6.70;;;21.10;55.00;;;;;;5052440;28;20197;-71
2024/03/05 00:21:25;;;;;;;9.20;7.53;;;21.10;55.00;;;;;;5051425;28;20461;-70
2024/03/05 00:23:51;;;;;;;8.33;6.97;;;21.10;55.00;;;;;;5052188;28;20285;-71
2024/03/05 00:26:18;;;;;;;8.50;7.57;;;21.10;55.10;;;;;;5052512;28;20572;-70
2024/03/05 00:28:44;;;;;;;7.83;6.60;;;21.10;55.00;;;;;;5052401;28;20175;-70
2024/03/05 00:31:10;;;;;;;8.00;7.20;;;21.10;55.10;;;;;;5052646;28;20412;-70
2024/03/05 00:33:35;;;;;;;8.47;6.37;;;21.10;55.10;;;;;;5052255;28;20425;-70
2024/03/05 00:36:03;;;;;;;7.43;6.77;;;21.10;55.00;;;;;;5052309;28;20186;-70
2024/03/05 00:38:29;;;;;;;8.00;6.90;;;21.10;55.00;;;;;;5052235;28;20665;-70
2024/03/05 00:40:55;;;;;;;7.57;6.80;;;21.10;55.00;;;;;;5052147;28;20449;-70
2024/03/05 00:43:20;;;;;;;7.33;6.63;;;21.10;55.10;;;;;;5052093;28;20856;-69
2024/03/05 00:45:46;;;;;;;8.43;6.77;;;21.10;55.10;;;;;;5052141;28;20183;-70
2024/03/05 00:48:12;;;;;;;7.40;6.60;;;21.10;55.10;;;;;;5050817;28;20183;-70
2024/03/05 00:50:37;;;;;;;8.03;7.33;;;21.10;55.00;;;;;;5051984;28;20175;-70
2024/03/05 00:53:04;;;;;;;7.33;6.63;;;21.10;55.10;;;;;;5051831;28;20194;-70
2024/03/05 00:55:30;;;;;;;6.93;6.00;;;21.10;55.10;;;;;;5051930;28;20225;-71
2024/03/05 00:57:56;;;;;;;7.90;6.63;;;21.10;55.10;;;;;;5051863;28;20406;-69
2024/03/05 01:00:24;;;;;;;7.20;6.13;;;21.10;55.10;;;;;;5051796;28;20409;-70
2024/03/05 01:02:52;;;;;;;8.40;7.50;;;21.10;55.10;;;;;;5051695;28;20661;-70
2024/03/05 01:05:18;;;;;;;6.53;5.93;;;21.10;55.10;;;;;;5051906;28;20784;-70
2024/03/05 01:07:44;;;;;;;7.17;6.27;;;21.10;55.10;;;;;;5051770;28;20892;-69
2024/03/05 01:10:10;;;;;;;8.50;7.70;;;21.10;55.10;;;;;;5051815;28;20499;-71
2024/03/05 01:12:36;;;;;;;7.40;6.70;;;21.10;55.10;;;;;;5051542;28;20175;-70
2024/03/05 01:15:03;;;;;;;7.97;7.17;;;21.10;55.10;;;;;;5051932;28;20349;-70
2024/03/05 01:17:29;;;;;;;6.53;5.90;;;21.10;55.10;;;;;;5051405;28;20429;-70
2024/03/05 01:19:55;;;;;;;7.17;6.13;;;21.10;55.10;;;;;;5051381;28;21034;-70
2024/03/05 01:22:21;;;;;;;7.00;6.30;;;21.10;55.10;;;;;;5051548;28;20210;-70
2024/03/05 01:24:49;;;;;;;7.23;6.53;;;21.10;55.10;;;;;;5051481;28;20426;-70
2024/03/05 01:27:15;;;;;;;6.13;5.53;;;21.10;55.10;;;;;;5050026;28;20420;-71
2024/03/05 01:29:41;;;;;;;7.13;6.43;;;21.10;55.10;;;;;;5051207;28;20917;-69
2024/03/05 01:32:07;;;;;;;7.53;6.53;;;21.00;55.10;;;;;;5051182;28;20262;-70
2024/03/05 01:34:37;;;;;;;7.60;6.47;;;21.00;55.10;;;;;;5050825;28;20425;-71
2024/03/05 01:37:03;;;;;;;6.03;5.43;;;21.00;55.00;;;;;;5051124;28;20472;-70
2024/03/05 01:39:30;;;;;;;6.37;5.73;;;21.10;55.10;;;;;;5051009;28;20416;-70
2024/03/05 01:41:56;;;;;;;8.13;7.33;;;21.00;55.10;;;;;;5050896;28;20456;-71
2024/03/05 01:44:23;;;;;;;7.83;7.03;;;21.00;55.10;;;;;;5051140;28;20430;-70
2024/03/05 01:46:53;;;;;;;7.17;6.47;;;21.00;55.10;;;;;;5050852;28;20488;-67
2024/03/05 01:49:21;;;;;;;9.30;7.37;;;21.00;55.10;;;;;;5050929;28;20440;-70
2024/03/05 01:51:48;;;;;;;6.47;5.67;;;21.00;55.10;;;;;;5049385;28;20418;-70
2024/03/05 01:54:15;;;;;;;6.47;5.60;;;21.00;55.10;;;;;;5049330;28;20499;-70
2024/03/05 01:56:54;;;;;;;7.50;6.40;;;21.00;55.10;;;;;;5050711;28;20417;-70
2024/03/05 01:59:21;;;;;;;7.20;6.17;;;21.00;55.10;;;;;;5050785;28;21239;-70
2024/03/05 02:01:48;;;;;;;6.60;5.90;;;21.00;55.10;;;;;;5050844;28;20493;-70
2024/03/05 02:04:15;;;;;;;7.07;6.33;;;21.00;55.10;;;;;;5050547;28;21019;-69
2024/03/05 02:06:42;;;;;;;6.30;5.53;;;21.00;55.20;;;;;;5050493;28;20445;-70
2024/03/05 02:09:11;;;;;;;6.00;5.40;;;21.00;55.10;;;;;;5050746;28;20483;-70
2024/03/05 02:11:46;;;;;;;7.07;6.20;;;21.00;55.10;;;;;;5050565;28;20456;-70
2024/03/05 02:14:12;;;;;;;8.13;6.90;;;21.00;55.10;;;;;;5050422;28;20801;-70
2024/03/05 02:16:39;;;;;;;7.40;6.37;;;21.00;55.10;;;;;;5050461;28;20414;-71
2024/03/05 02:19:06;;;;;;;7.10;6.40;;;21.00;55.10;;;;;;5050218;28;20186;-70
2024/03/05 02:21:33;;;;;;;7.97;6.90;;;21.00;55.10;;;;;;5050139;28;20505;-70
2024/03/05 02:23:59;;;;;;;7.03;6.33;;;21.00;55.70;;;;;;5050236;28;20530;-69
2024/03/05 02:26:28;;;;;;;7.30;5.90;;;21.00;55.10;;;;;;5050189;28;20171;-70
2024/03/05 02:28:54;;;;;;;7.13;6.43;;;21.00;55.10;;;;;;5050189;28;20221;-69
2024/03/05 02:31:20;;;;;;;7.00;6.30;;;21.00;55.10;;;;;;5050097;28;20512;-70
2024/03/05 02:33:48;;;;;;;6.70;5.97;;;21.00;55.20;;;;;;5049973;28;20536;-70
2024/03/05 02:36:13;;;;;;;7.27;6.47;;;21.00;55.10;;;;;;5050095;28;20198;-69
2024/03/05 02:38:40;;;;;;;6.53;5.60;;;21.00;55.10;;;;;;5050035;28;20425;-70
2024/03/05 02:41:05;;;;;;;8.00;6.60;;;21.00;55.20;;;;;;5049972;28;20643;-70
2024/03/05 02:43:31;;;;;;;5.80;5.30;;;21.00;55.10;;;;;;5049958;28;20476;-70
2024/03/05 02:45:58;;;;;;;6.57;5.97;;;21.00;55.10;;;;;;5049244;28;20179;-69
2024/03/05 02:48:24;;;;;;;6.57;5.97;;;21.00;55.10;;;;;;5050238;28;20546;-69
2024/03/05 02:50:50;;;;;;;7.03;6.33;;;21.00;55.10;;;;;;5049754;28;20420;-70
2024/03/05 02:53:17;;;;;;;5.40;4.90;;;21.00;55.10;;;;;;5049831;28;20214;-70
2024/03/05 02:55:44;;;;;;;7.17;6.47;;;21.00;55.10;;;;;;5049831;28;20638;-70
2024/03/05 02:58:11;;;;;;;6.40;5.47;;;21.00;55.10;;;;;;5049881;28;20458;-70
2024/03/05 03:00:37;;;;;;;6.17;5.60;;;21.00;55.10;;;;;;5049880;28;21206;-70
2024/03/05 03:03:04;;;;;;;5.70;5.20;;;21.00;55.10;;;;;;5049753;28;20508;-70
2024/03/05 03:05:31;;;;;;;6.63;5.80;;;21.00;55.10;;;;;;5049751;28;20448;-70
2024/03/05 03:07:57;;;;;;;6.47;5.67;;;21.00;55.10;;;;;;5049715;28;20428;-70
2024/03/05 03:10:23;;;;;;;7.03;6.10;;;21.00;55.10;;;;;;5048646;28;20421;-70
2024/03/05 03:12:49;;;;;;;7.00;6.30;;;21.00;55.10;;;;;;5049933;28;20416;-70
2024/03/05 03:15:16;;;;;;;6.73;6.03;;;21.00;55.10;;;;;;5049721;28;20904;-67
2024/03/05 03:17:41;;;;;;;6.90;6.17;;;21.00;55.10;;;;;;5049760;28;20236;-70
2024/03/05 03:20:15;;;;;;;6.90;6.20;;;21.00;55.10;;;;;;5050187;28;21267;-70
2024/03/05 03:22:43;;;;;;;5.60;5.10;;;21.00;55.10;;;;;;5049667;28;20229;-69
2024/03/05 03:25:09;;;;;;;5.90;5.40;;;21.00;55.10;;;;;;5049580;28;20402;-70
2024/03/05 03:27:40;;;;;;;5.80;5.30;;;21.00;55.20;;;;;;5049568;28;20494;-70
2024/03/05 03:30:06;;;;;;;6.50;5.90;;;21.00;55.20;;;;;;5049609;28;20168;-70
2024/03/05 03:32:35;;;;;;;7.67;6.10;;;21.00;55.10;;;;;;5049514;28;20506;-70
2024/03/05 03:35:05;;;;;;;6.83;5.67;;;21.00;55.10;;;;;;5049493;28;20460;-70
2024/03/05 03:37:31;;;;;;;6.43;5.33;;;21.00;55.10;;;;;;5049452;28;20412;-71
2024/03/05 03:39:57;;;;;;;7.30;6.37;;;21.00;55.10;;;;;;5049480;28;20912;-70
2024/03/05 03:42:22;;;;;;;6.03;5.43;;;21.00;55.20;;;;;;5049633;28;20198;-70
2024/03/05 03:44:48;;;;;;;6.23;5.63;;;21.00;55.20;;;;;;5049359;28;20183;-71
2024/03/05 03:47:13;;;;;;;5.43;4.93;;;21.00;55.20;;;;;;5049660;28;20321;-71
2024/03/05 03:49:47;;;;;;;7.43;6.37;;;20.90;55.10;;;;;;5049372;28;20182;-71
2024/03/05 03:52:14;;;;;;;5.60;5.07;;;21.00;55.20;;;;;;5049406;28;20229;-71
2024/03/05 03:54:39;;;;;;;6.07;5.47;;;20.90;55.10;;;;;;5049223;28;20428;-71
2024/03/05 03:57:06;;;;;;;5.80;5.20;;;21.00;55.20;;;;;;5051673;28;20932;-71
2024/03/05 03:59:33;;;;;;;6.03;5.43;;;21.00;55.20;;;;;;5053029;28;20175;-69
2024/03/05 04:01:59;;;;;;;6.73;5.90;;;21.00;55.20;;;;;;5052883;28;20527;-71
2024/03/05 04:04:24;;;;;;;6.07;5.50;;;21.00;55.20;;;;;;5052837;28;20471;-71
2024/03/05 04:06:50;;;;;;;5.60;5.00;;;20.90;55.10;;;;;;5052841;28;20410;-70
2024/03/05 04:09:16;;;;;;;5.83;5.23;;;20.90;55.10;;;;;;5052843;28;20178;-71
2024/03/05 04:11:42;;;;;;;6.13;5.53;;;21.00;55.70;;;;;;5052726;28;20209;-70
2024/03/05 04:14:08;;;;;;;6.53;5.80;;;20.90;55.10;;;;;;5052941;28;20461;-70
2024/03/05 04:16:34;;;;;;;6.57;5.87;;;20.90;55.10;;;;;;5052693;28;20205;-71
2024/03/05 04:19:00;;;;;;;6.00;5.40;;;20.90;55.10;;;;;;5052598;28;20433;-70
2024/03/05 04:21:26;;;;;;;6.43;5.73;;;20.90;55.10;;;;;;5052492;28;20692;-71
2024/03/05 04:23:55;;;;;;;5.90;5.30;;;20.90;55.10;;;;;;5052585;28;20418;-71
2024/03/05 04:26:23;;;;;;;5.83;5.27;;;20.90;55.10;;;;;;5052563;28;20248;-71
2024/03/05 04:28:54;;;;;;;5.93;5.27;;;20.90;55.10;;;;;;5052434;28;20475;-70
2024/03/05 04:31:22;;;;;;;7.40;5.73;;;20.90;55.10;;;;;;5052401;28;20409;-71
2024/03/05 04:33:49;;;;;;;6.00;5.40;;;20.90;55.10;;;;;;5052332;28;20944;-71
2024/03/05 04:36:15;;;;;;;6.23;5.63;;;20.90;55.10;;;;;;5052378;28;20409;-70
2024/03/05 04:38:43;;;;;;;6.10;5.37;;;21.00;55.20;;;;;;5052299;28;20441;-71
2024/03/05 04:41:13;;;;;;;5.70;5.10;;;20.90;55.10;;;;;;5052208;28;20465;-70
2024/03/05 04:43:39;;;;;;;6.00;5.20;;;20.90;55.70;;;;;;5052091;28;20944;-70
2024/03/05 04:46:05;;;;;;;6.33;5.70;;;20.90;55.10;;;;;;5052194;28;20400;-70
2024/03/05 04:48:31;;;;;;;5.20;4.70;;;20.90;55.10;;;;;;5052074;28;20473;-70
2024/03/05 04:50:57;;;;;;;6.10;5.50;;;20.90;55.10;;;;;;5051927;28;20789;-71
2024/03/05 04:53:23;;;;;;;6.60;5.70;;;20.90;55.10;;;;;;5052013;28;20456;-69
2024/03/05 04:55:48;;;;;;;5.00;4.50;;;20.90;55.10;;;;;;5051953;28;20167;-70
2024/03/05 04:58:18;;;;;;;6.13;5.43;;;20.90;55.10;;;;;;5052013;28;20207;-69
2024/03/05 05:00:44;;;;;;;7.47;5.83;;;21.00;55.20;;;;;;5051767;28;20649;-71
2024/03/05 05:03:10;;;;;;;6.60;5.40;;;20.90;55.10;;;;;;5051780;28;20426;-71
2024/03/05 05:05:35;;;;;;;5.67;4.97;;;20.90;55.10;;;;;;5051880;28;20412;-70
2024/03/05 05:08:03;;;;;;;6.50;5.90;;;20.90;55.10;;;;;;5051324;28;20183;-70
2024/03/05 05:10:29;;;;;;;7.13;5.10;;;21.00;55.20;;;;;;5051664;28;20201;-71
2024/03/05 05:12:54;;;;;;;5.60;5.10;;;20.90;55.10;;;;;;5051653;28;20433;-71
2024/03/05 05:15:20;;;;;;;5.80;5.03;;;21.00;55.20;;;;;;5051715;28;20174;-70
2024/03/05 05:17:46;;;;;;;6.30;5.67;;;21.00;55.20;;;;;;5051401;28;20525;-71
2024/03/05 05:20:15;;;;;;;6.03;5.43;;;21.00;55.20;;;;;;5044755;28;20219;-70
2024/03/05 05:22:42;;;;;;;5.83;5.23;;;21.00;55.20;;;;;;5046351;28;20207;-70
2024/03/05 05:25:15;;;;;;;6.30;5.70;;;21.00;55.20;;;;;;5050972;28;20420;-70
2024/03/05 05:27:41;;;;;;;5.30;4.60;;;21.00;55.20;;;;;;5050168;28;20834;-70
2024/03/05 05:30:08;;;;;;;5.87;4.67;;;21.00;55.70;;;;;;5050003;28;20500;-71
2024/03/05 05:32:37;;;;;;;5.70;5.13;;;21.00;55.20;;;;;;5050924;28;20195;-71
2024/03/05 05:35:03;;;;;;;5.10;4.60;;;21.00;55.10;;;;;;5051426;28;20420;-69
2024/03/05 05:37:30;;;;;;;5.17;4.67;;;21.00;55.10;;;;;;5051149;28;20406;-70
2024/03/05 05:39:56;;;;;;;6.90;5.67;;;21.00;55.10;;;;;;5051162;28;20206;-70
2024/03/05 05:42:23;;;;;;;5.03;4.53;;;21.00;55.10;;;;;;5051004;28;20811;-71
2024/03/05 05:44:49;;;;;;;5.27;4.50;;;21.00;55.10;;;;;;5051115;28;20426;-71
2024/03/05 05:47:15;;;;;;;5.57;4.57;;;21.00;55.10;;;;;;5051161;28;20474;-71
2024/03/05 05:49:41;;;;;;;5.67;4.83;;;21.00;55.10;;;;;;5051069;28;20398;-70
2024/03/05 05:52:07;;;;;;;5.40;4.90;;;21.00;55.10;;;;;;5050980;28;20229;-71
2024/03/05 05:54:42;;;;;;;5.40;4.60;;;21.00;55.10;;;;;;5050796;28;20713;-70
2024/03/05 05:57:11;;;;;;;6.27;5.63;;;21.00;55.10;;;;;;5050926;28;20413;-71
2024/03/05 05:59:37;;;;;;;5.03;4.40;;;21.00;55.10;;;;;;5050775;28;20455;-71
2024/03/05 06:02:08;;;;;;;6.07;5.47;;;21.00;55.10;;;;;;5050743;28;20480;-71
2024/03/05 06:04:35;;;;;;;5.13;4.63;;;21.00;55.10;;;;;;5050790;28;20948;-71
2024/03/05 06:07:01;;;;;;;5.87;5.30;;;21.00;55.10;;;;;;5050646;28;20406;-70
2024/03/05 06:09:28;;;;;;;6.20;5.07;;;21.00;55.70;;;;;;5050715;28;20409;-71
2024/03/05 06:11:56;;;;;;;7.10;4.77;;;21.00;55.10;;;;;;5061996;28;20182;-70
2024/03/05 06:14:22;;;;;;;6.17;5.37;;;21.00;55.10;;;;;;5064669;28;20452;-72
2024/03/05 06:16:48;;;;;;;5.57;5.07;;;21.00;55.10;;;;;;5064569;28;20410;-71
2024/03/05 06:19:14;;;;;;;6.00;5.40;;;21.00;55.20;;;;;;5063503;28;20245;-71
2024/03/05 06:21:40;;;;;;;5.87;5.00;;;21.10;55.20;;;;;;5064328;28;20456;-72
2024/03/05 06:24:06;;;;;;;5.57;4.67;;;21.00;55.20;;;;;;5064483;28;20195;-70
2024/03/05 06:26:40;;;;;;;4.80;4.30;;;21.10;55.20;;;;;;5066263;28;20198;-68
2024/03/05 06:29:09;;;;;;;4.90;4.40;;;21.10;55.20;;;;;;5065542;28;20394;-70
2024/03/05 06:31:35;;;;;;;5.30;4.80;;;21.10;55.20;;;;;;5067768;28;20417;-71
2024/03/05 06:34:05;;;;;;;5.50;5.00;;;21.10;55.80;;;;;;5068038;28;20460;-70
2024/03/05 06:36:34;;;;;;;6.03;4.73;;;21.10;55.20;;;;;;5067895;28;20769;-71
2024/03/05 06:39:07;;;;;;;4.87;4.10;;;21.10;55.20;;;;;;5068311;28;20409;-72
2024/03/05 06:41:33;;;;;;;6.50;4.87;;;21.10;55.20;;;;;;5067379;28;20445;-70
2024/03/05 06:44:10;;;;;;;5.10;4.60;;;21.10;55.20;;;;;;5065960;28;20426;-70
2024/03/05 06:46:41;;;;;;;5.67;5.07;;;21.20;55.20;;;;;;5067075;28;20151;-71
2024/03/05 06:49:08;;;;;;;6.87;5.40;;;21.10;55.20;;;;;;5066972;28;20390;-70
2024/03/05 06:51:41;;;;;;;5.53;5.03;;;21.20;55.20;;;;;;5066243;28;20439;-71
2024/03/05 06:56:52;;;;;;;5.60;4.73;;;21.20;55.20;;;;;;5066117;28;20465;-71
2024/03/05 06:59:18;;;;;;;5.23;4.73;;;21.20;55.20;;;;;;5066796;28;20421;-70
2024/03/05 07:01:44;;;;;;;5.73;4.77;;;21.20;55.20;;;;;;5066265;28;20198;-70
2024/03/05 07:04:10;;;;;;;5.00;4.07;;;21.20;55.10;;;;;;5066186;28;20425;-69
2024/03/05 07:06:35;;;;;;;6.57;5.43;;;21.20;55.10;;;;;;5066860;28;20485;-70
2024/03/05 07:09:02;;;;;;;5.10;4.60;;;21.20;55.10;;;;;;5066240;28;20175;-70
2024/03/05 07:11:29;;;;;;;7.40;5.07;;;21.20;55.10;;;;;;5065333;28;20185;-72
2024/03/05 07:13:55;;;;;;;4.90;4.47;;;21.20;55.10;;;;;;5064313;28;20436;-70
2024/03/05 07:16:23;;;;;;;5.60;4.80;;;21.30;55.20;;;;;;5064503;28;20500;-71
2024/03/05 07:18:50;;;;;;;5.80;5.20;;;21.30;55.20;;;;;;5065194;28;20521;-70
2024/03/05 07:21:24;;;;;;;4.67;4.23;;;21.30;55.20;;;;;;5064972;28;20453;-70
2024/03/05 07:23:50;;;;;;;5.47;4.97;;;21.30;55.20;;;;;;5064877;28;20428;-71
2024/03/05 07:26:16;;;;;;;5.03;4.53;;;21.30;55.20;;;;;;5064760;28;20406;-70
2024/03/05 07:28:43;;;;;;;4.23;3.83;;;21.30;55.20;;;;;;5064968;28;20428;-71
2024/03/05 07:31:08;;;;;;;5.73;5.03;;;21.30;55.20;;;;;;5065681;28;20441;-71
2024/03/05 07:33:38;;;;;;;4.87;4.37;;;21.30;55.20;;;;;;5068738;28;20444;-71
2024/03/05 07:36:04;;;;;;;5.60;4.37;;;21.30;55.20;;;;;;5068946;28;20208;-71
2024/03/05 07:38:30;;;;;;;4.40;4.00;;;21.30;55.20;;;;;;5068077;28;20420;-70
2024/03/05 07:40:56;;;;;;;4.80;4.37;;;21.30;55.20;;;;;;5069152;28;20477;-70
2024/03/05 07:43:22;;;;;;;4.80;4.40;;;21.30;55.20;;;;;;5068651;28;20495;-71
2024/03/05 07:45:47;;;;;;;5.10;4.50;;;21.30;55.20;;;;;;5069037;28;20178;-71
2024/03/05 07:48:14;;;;;;;5.07;4.43;;;21.30;55.20;;;;;;5063967;28;20167;-71
2024/03/05 07:50:41;;;;;;;4.77;4.37;;;21.30;55.20;;;;;;5061314;28;20175;-71
2024/03/05 07:53:06;;;;;;;5.40;4.40;;;21.30;55.20;;;;;;5060488;28;20505;-69
2024/03/05 07:55:37;;;;;;;4.70;4.23;;;21.30;55.20;;;;;;5062081;28;20448;-69
2024/03/05 07:58:03;;;;;;;4.73;4.13;;;21.30;55.20;;;;;;5056691;28;20223;-67
2024/03/05 08:00:29;;;;;;;5.57;4.57;;;21.30;55.20;;;;;;5061275;28;20417;-70
2024/03/05 08:02:55;;;;;;;5.17;4.67;;;21.30;55.20;;;;;;5059556;28;21046;-70
2024/03/05 08:05:22;;;;;;;4.93;4.30;;;21.40;55.30;;;;;;5060791;28;20414;-69
2024/03/05 08:07:53;;;;;;;4.47;4.07;;;21.40;55.30;;;;;;5057238;28;20171;-69
2024/03/05 08:10:19;;;;;;;5.50;3.90;;;21.40;55.30;;;;;;5059641;28;20410;-71
2024/03/05 08:12:47;;;;;;;4.70;3.93;;;21.40;55.20;;;;;;5059336;28;20417;-70
2024/03/05 08:15:17;;;;;;;5.30;4.40;;;21.40;55.20;;;;;;5061838;28;20437;-71
2024/03/05 08:17:47;;;;;;;5.30;4.80;;;21.40;55.20;;;;;;5063536;28;20421;-72
2024/03/05 08:20:13;;;;;;;5.20;4.67;;;21.40;55.30;;;;;;5062545;28;20900;-70
2024/03/05 08:22:39;;;;;;;5.10;3.70;;;21.40;55.30;;;;;;5062383;28;20464;-70
2024/03/05 08:25:12;;;;;;;4.63;4.20;;;21.50;55.30;;;;;;5064262;28;20178;-71
2024/03/05 08:27:41;;;;;;;4.97;4.47;;;21.50;55.30;;;;;;5063448;28;20532;-71
2024/03/05 08:30:17;;;;;;;5.83;4.70;;;21.40;55.20;;;;;;5062927;28;20421;-68
2024/03/05 08:32:46;;;;;;;6.00;4.83;;;21.40;55.30;;;;;;5062714;28;20401;-72
2024/03/05 08:35:12;;;;;;;5.37;4.20;;;21.40;55.30;;;;;;5063572;28;20445;-71
2024/03/05 08:37:46;;;;;;;4.67;4.17;;;21.40;55.30;;;;;;5062848;28;20425;-70
2024/03/05 08:40:14;;;;;;;4.30;3.90;;;21.40;55.30;;;;;;5062389;28;20433;-71
2024/03/05 08:42:44;;;;;;;9.20;4.63;;;21.40;55.30;;;;;;5060576;28;20528;-71
2024/03/05 08:45:20;;;;;;;6.20;4.93;;;21.40;55.40;;;;;;5061536;28;20428;-70
2024/03/05 08:47:50;;;;;;;4.53;3.80;;;21.40;55.30;;;;;;5061580;28;20397;-71
2024/03/05 08:50:17;;;;;;;5.27;3.90;;;21.40;55.30;;;;;;5062247;28;20412;-70
2024/03/05 08:52:43;;;;;;;4.70;4.30;;;21.40;55.30;;;;;;5062914;28;20425;-71
2024/03/05 08:55:10;;;;;;;4.20;3.63;;;21.40;55.30;;;;;;5062039;28;20413;-70
2024/03/05 08:57:37;;;;;;;5.23;4.60;;;21.40;55.30;;;;;;5062416;28;20500;-70
2024/03/05 09:00:03;;;;;;;4.67;3.90;;;21.40;55.40;;;;;;5063375;28;20535;-70
2024/03/05 09:02:29;;;;;;;4.50;3.80;;;21.40;55.30;;;;;;5062342;28;20448;-71
2024/03/05 09:04:55;;;;;;;5.37;3.60;;;21.40;55.30;;;;;;5062556;28;20954;-69
2024/03/05 09:07:20;;;;;;;4.40;3.73;;;21.40;55.30;;;;;;5062939;28;20253;-70
2024/03/05 09:09:46;;;;;;;4.27;3.70;;;21.40;55.40;;;;;;5062086;28;20181;-70
2024/03/05 09:12:13;;;;;;;3.87;3.50;;;21.40;55.40;;;;;;5063745;28;20198;-70
2024/03/05 09:14:39;;;;;;;4.33;3.90;;;21.40;55.30;;;;;;5062363;28;20509;-69
2024/03/05 09:17:05;;;;;;;4.63;3.83;;;21.40;55.30;;;;;;5062818;28;20878;-70
2024/03/05 09:19:31;;;;;;;4.37;3.97;;;21.40;55.40;;;;;;5062274;28;20412;-70
2024/03/05 09:21:57;;;;;;;5.63;4.37;;;21.40;55.30;;;;;;5062200;28;20195;-70
2024/03/05 09:24:23;;;;;;;4.87;4.00;;;21.40;55.90;;;;;;5063363;28;20450;-71
2024/03/05 09:26:50;;;;;;;4.50;3.93;;;21.40;55.30;;;;;;5063114;28;20432;-70
2024/03/05 09:29:16;;;;;;;4.93;4.27;;;21.40;55.30;;;;;;5061978;28;20199;-70
2024/03/05 09:31:43;;;;;;;4.60;3.47;;;21.40;55.30;;;;;;5061469;28;20471;-70
2024/03/05 09:34:08;;;;;;;5.03;4.03;;;21.40;55.40;;;;;;5063595;28;20433;-68
2024/03/05 09:36:34;;;;;;;4.40;3.73;;;21.40;55.30;;;;;;5062676;28;20402;-69
2024/03/05 09:39:00;;;;;;;4.30;3.90;;;21.40;55.30;;;;;;5061426;28;20194;-70
2024/03/05 09:41:27;;;;;;;4.87;3.70;;;21.40;55.40;;;;;;5062776;28;20199;-70
2024/03/05 09:43:53;;;;;;;4.27;3.87;;;21.40;55.40;;;;;;5062865;28;20270;-70
2024/03/05 09:46:20;;;;;;;4.30;3.90;;;21.40;55.40;;;;;;5062129;28;20449;-70
2024/03/05 09:48:46;;;;;;;3.87;3.40;;;21.40;55.40;;;;;;5062627;28;20443;-70
2024/03/05 09:51:15;;;;;;;4.13;3.73;;;21.40;55.40;;;;;;5063516;28;20417;-70
2024/03/05 09:53:41;;;;;;;3.90;3.30;;;21.40;55.40;;;;;;5062165;28;20457;-70
2024/03/05 09:56:07;;;;;;;3.90;3.50;;;21.40;55.40;;;;;;5061127;28;20426;-71
2024/03/05 09:58:39;;;;;;;4.87;3.90;;;21.40;55.40;;;;;;5061348;28;20175;-69
2024/03/05 10:01:09;;;;;;;4.10;3.70;;;21.40;55.40;;;;;;5061387;28;20413;-69
2024/03/05 10:03:37;;;;;;;4.43;3.80;;;21.40;55.40;;;;;;5062950;28;20445;-70
2024/03/05 10:06:09;;;;;;;4.20;3.80;;;21.40;55.40;;;;;;5061766;28;20417;-70
2024/03/05 10:08:34;;;;;;;4.33;3.53;;;21.40;55.40;;;;;;5062039;28;20405;-71
2024/03/05 10:11:02;;;;;;;4.87;3.90;;;21.40;55.40;;;;;;5061506;28;20418;-69
2024/03/05 10:13:35;;;;;;;4.83;3.80;;;21.40;55.40;;;;;;5061631;28;20198;-69
2024/03/05 10:16:17;;;;;;;3.97;3.57;;;21.40;55.40;;;;;;5061411;28;20433;-69
2024/03/05 10:18:44;;;;;;;4.57;4.10;;;21.40;55.40;;;;;;5061418;28;20437;-71
2024/03/05 10:21:24;;;;;;;4.23;3.10;;;21.40;55.40;;;;;;5061490;28;20416;-70
2024/03/05 10:23:58;;;;;;;4.27;3.70;;;21.40;55.40;;;;;;5060806;28;20453;-70
2024/03/05 10:26:28;;;;;;;3.73;3.43;;;21.40;55.40;;;;;;5061039;28;20886;-69
2024/03/05 10:29:07;;;;;;;12.53;6.20;;;21.40;55.40;;;;;;5061139;28;20420;-70
2024/03/05 10:31:34;;;;;;;79.23;31.53;;;21.40;55.40;;;;;;5062009;28;20908;-70
2024/03/05 10:34:00;;;;;;;59.80;27.40;;;21.40;55.40;;;;;;5061583;28;21034;-68
2024/03/05 10:36:33;;;;;;;74.97;36.40;;;21.40;55.40;;;;;;5062662;28;20410;-70
2024/03/05 10:38:59;;;;;;;77.83;38.23;;;21.40;55.30;;;;;;5062025;28;20171;-70
2024/03/05 10:41:32;;;;;;;72.53;36.87;;;21.40;55.30;;;;;;5062925;28;20803;-70
2024/03/05 10:44:02;;;;;;;62.17;32.80;;;21.40;55.20;;;;;;5062320;28;20815;-71
2024/03/05 10:46:37;;;;;;;50.03;27.27;;;21.40;55.20;;;;;;5060613;28;20417;-70
2024/03/05 10:49:05;;;;;;;49.00;25.50;;;21.30;55.10;;;;;;5061763;28;20393;-70
2024/03/05 10:51:38;;;;;;;58.70;25.23;;;21.30;55.10;;;;;;5062003;28;20428;-70
2024/03/05 10:54:04;;;;;;;43.47;25.00;;;21.30;55.00;;;;;;5061376;28;20437;-69
2024/03/05 10:56:32;;;;;;;44.90;24.70;;;21.30;55.00;;;;;;5062169;28;20417;-69
2024/03/05 10:59:29;;;;;;;36.20;20.67;;;21.30;55.00;;;;;;5061069;28;20417;-69
2024/03/05 11:01:58;;;;;;;42.90;23.80;;;21.30;54.90;;;;;;5062333;28;20453;-69
2024/03/05 11:04:24;;;;;;;39.97;21.77;;;21.30;54.90;;;;;;5061358;28;20436;-70
2024/03/05 11:06:54;;;;;;;46.07;21.60;;;21.30;55.00;;;;;;5063929;28;20843;-70
2024/03/05 11:09:21;;;;;;;36.93;21.60;;;21.30;54.90;;;;;;5065742;28;20436;-69
2024/03/05 11:12:06;;;;;;;42.70;22.03;;;21.30;54.90;;;;;;5064948;28;20421;-70
2024/03/05 11:14:33;;;;;;;35.97;21.07;;;21.30;54.80;;;;;;5066174;28;20437;-71
2024/03/05 11:17:09;;;;;;;31.47;20.50;;;21.30;54.80;;;;;;5065428;28;20444;-70
2024/03/05 11:19:44;;;;;;;37.40;21.87;;;21.30;54.70;;;;;;5063645;28;20410;-69
2024/03/05 11:22:26;;;;;;;34.07;21.00;;;21.30;54.80;;;;;;5064889;28;20555;-71
2024/03/05 11:24:59;;;;;;;35.83;21.37;;;21.30;54.80;;;;;;5064431;28;20540;-70
2024/03/05 11:27:28;;;;;;;30.53;20.40;;;21.30;54.80;;;;;;5065051;28;20394;-70
2024/03/05 11:30:19;;;;;;;34.73;20.13;;;21.30;54.90;;;;;;5064921;28;20921;-71
2024/03/05 11:32:50;;;;;;;39.20;20.37;;;21.30;54.80;;;;;;5064079;28;20443;-69
2024/03/05 11:35:18;;;;;;;32.87;19.20;;;21.20;54.70;;;;;;5064735;28;20791;-71
2024/03/05 11:37:51;;;;;;;29.40;17.03;;;21.20;54.80;;;;;;5063768;28;20410;-70
2024/03/05 11:40:21;;;;;;;21.97;15.00;;;21.30;55.00;;;;;;5064298;28;20405;-70
2024/03/05 11:42:47;;;;;;;20.93;14.90;;;21.20;55.00;;;;;;5063468;28;20548;-70
2024/03/05 11:45:42;;;;;;;24.33;15.57;;;21.20;55.00;;;;;;5062585;28;20449;-69
2024/03/05 11:48:10;;;;;;;21.33;13.27;;;21.30;55.00;;;;;;5063854;28;20409;-70
2024/03/05 11:50:36;;;;;;;17.60;12.23;;;21.20;54.90;;;;;;5063115;28;20417;-69
2024/03/05 11:53:02;;;;;;;19.27;12.63;;;21.20;54.90;;;;;;5063013;28;20429;-70
2024/03/05 11:55:28;;;;;;;18.20;10.80;;;21.20;54.90;;;;;;5062678;28;20458;-71
2024/03/05 11:57:57;;;;;;;15.00;10.90;;;21.20;54.90;;;;;;5063676;28;20207;-69
2024/03/05 12:00:23;;;;;;;18.07;11.53;;;21.30;54.80;;;;;;5064269;28;20175;-69
2024/03/05 12:02:57;;;;;;;14.80;10.30;;;21.20;54.70;;;;;;5063635;28;20461;-70
2024/03/05 12:05:24;;;;;;;12.77;9.90;;;21.20;54.70;;;;;;5064126;28;20412;-69
2024/03/05 12:08:22;;;;;;;16.87;10.80;;;21.20;54.60;;;;;;5063513;28;20412;-71
2024/03/05 12:10:49;;;;;;;14.03;10.37;;;21.20;54.50;;;;;;5064143;28;20437;-70
2024/03/05 12:13:18;;;;;;;14.60;9.90;;;21.20;54.50;;;;;;5063868;28;20461;-68
2024/03/05 12:15:44;;;;;;;15.20;10.67;;;21.20;54.40;;;;;;5063601;28;20573;-70
2024/03/05 12:18:12;;;;;;;15.53;12.27;;;21.20;54.30;;;;;;5064470;28;20555;-69
2024/03/05 12:20:41;;;;;;;15.37;10.27;;;21.20;54.30;;;;;;5064490;28;20385;-70
2024/03/05 12:23:07;;;;;;;17.67;11.17;;;21.20;54.20;;;;;;5063502;28;20480;-70
2024/03/05 12:25:34;;;;;;;20.53;12.80;;;21.20;54.00;;;;;;5062770;28;20414;-70
2024/03/05 12:28:00;;;;;;;16.60;10.50;;;21.20;54.00;;;;;;5064656;28;20186;-69
2024/03/05 12:30:32;;;;;;;14.03;10.20;;;21.20;54.00;;;;;;5063536;28;20460;-70
2024/03/05 12:32:58;;;;;;;14.27;10.80;;;21.20;54.00;;;;;;5063232;28;20445;-70
2024/03/05 12:35:25;;;;;;;15.10;9.73;;;21.20;54.00;;;;;;5063633;28;20429;-70
2024/03/05 12:37:52;;;;;;;15.10;10.77;;;21.20;54.00;;;;;;5062697;28;20274;-70
2024/03/05 12:40:22;;;;;;;13.60;10.00;;;21.20;54.00;;;;;;5063843;28;20418;-69
2024/03/05 12:42:49;;;;;;;15.83;10.47;;;21.20;54.00;;;;;;5063267;28;20527;-69
2024/03/05 12:45:21;;;;;;;20.60;12.03;;;21.20;54.00;;;;;;5064215;28;20838;-68
2024/03/05 12:48:00;;;;;;;27.67;12.50;;;21.20;54.00;;;;;;5064232;28;20405;-71
2024/03/05 12:50:26;;;;;;;19.77;12.13;;;21.20;54.00;;;;;;5064649;28;20416;-72